createdAt,value
2023-02-28T00:00:50.943Z,48.08
2023-02-28T00:03:21.226Z,48.09
2023-02-28T00:05:51.317Z,48.00
2023-02-28T00:08:21.169Z,48.08
2023-02-28T00:10:51.169Z,47.94
2023-02-28T00:13:21.080Z,47.88
2023-02-28T00:15:50.940Z,47.79
2023-02-28T00:18:20.822Z,47.77
2023-02-28T00:20:51.038Z,47.82
2023-02-28T00:23:21.033Z,47.74
2023-02-28T00:25:53.842Z,47.72
2023-02-28T00:28:24.528Z,47.57
2023-02-28T00:31:12.781Z,47.31
2023-02-28T00:33:42.970Z,47.22
2023-02-28T00:36:14.703Z,47.09
2023-02-28T00:38:45.312Z,46.88
2023-02-28T00:41:15.472Z,47.10
2023-02-28T00:43:46.182Z,47.09
2023-02-28T00:46:16.471Z,46.94
2023-02-28T00:48:46.607Z,46.89
2023-02-28T00:51:17.920Z,46.63
2023-02-28T00:54:03.737Z,46.63
2023-02-28T00:56:33.841Z,46.35
2023-02-28T00:59:03.828Z,46.53
2023-02-28T01:01:33.869Z,46.63
2023-02-28T01:04:03.761Z,46.38
2023-02-28T01:06:39.555Z,46.32
2023-02-28T01:09:11.114Z,46.39
2023-02-28T01:11:42.287Z,46.39
2023-02-28T01:14:19.192Z,46.29
2023-02-28T01:16:49.430Z,46.26
2023-02-28T01:19:19.574Z,46.33
2023-02-28T01:21:49.899Z,46.28
2023-02-28T01:24:38.456Z,46.42
2023-02-28T01:27:08.488Z,46.30
2023-02-28T01:29:40.509Z,46.36
2023-02-28T01:34:58.348Z,46.23
2023-02-28T01:37:29.625Z,46.41
2023-02-28T01:39:59.716Z,46.34
2023-02-28T01:42:29.726Z,46.36
2023-02-28T01:45:28.268Z,46.23
2023-02-28T01:48:16.612Z,46.31
2023-02-28T01:51:13.782Z,45.89
2023-02-28T01:53:54.726Z,45.76
2023-02-28T01:56:36.767Z,45.84
2023-02-28T01:59:08.807Z,45.94
2023-02-28T02:01:39.154Z,45.76
2023-02-28T02:04:09.291Z,45.65
2023-02-28T02:06:46.712Z,45.58
2023-02-28T02:09:17.531Z,45.96
2023-02-28T02:11:49.364Z,45.66
2023-02-28T02:14:29.868Z,45.60
2023-02-28T02:17:44.396Z,45.34
2023-02-28T02:20:32.428Z,45.74
2023-02-28T02:23:32.616Z,45.98
2023-02-28T02:26:33.111Z,45.93
2023-02-28T02:29:23.351Z,46.03
2023-02-28T02:32:06.462Z,46.12
2023-02-28T02:34:43.471Z,45.98
2023-02-28T02:37:50.474Z,45.52
2023-02-28T02:41:19.637Z,45.62
2023-02-28T02:44:21.720Z,45.36
2023-02-28T02:46:57.887Z,45.58
2023-02-28T02:49:52.356Z,46.13
2023-02-28T02:52:30.028Z,45.65
2023-02-28T02:55:03.506Z,45.95
2023-02-28T02:57:37.109Z,46.06
2023-02-28T03:00:13.207Z,46.03
2023-02-28T03:02:44.585Z,46.00
2023-02-28T03:05:37.006Z,46.06
2023-02-28T03:08:08.812Z,46.25
2023-02-28T03:10:44.478Z,46.13
2023-02-28T03:13:37.441Z,46.22
2023-02-28T03:16:49.802Z,45.95
2023-02-28T03:20:18.402Z,46.08
2023-02-28T03:29:20.311Z,46.28
2023-02-28T03:32:20.309Z,46.30
2023-02-28T03:35:03.516Z,46.32
2023-02-28T03:37:37.800Z,46.29
2023-02-28T03:40:25.696Z,46.28
2023-02-28T03:43:03.069Z,46.40
2023-02-28T03:45:37.635Z,46.36
2023-02-28T03:48:23.924Z,46.36
2023-02-28T03:51:00.827Z,46.45
2023-02-28T03:53:54.748Z,46.38
2023-02-28T03:57:02.146Z,46.10
2023-02-28T04:00:07.524Z,46.34
2023-02-28T04:02:56.976Z,46.00
2023-02-28T04:05:26.650Z,46.20
2023-02-28T04:10:42.906Z,46.63
2023-02-28T04:13:30.915Z,46.33
2023-02-28T04:16:01.281Z,45.97
2023-02-28T04:18:31.418Z,46.00
2023-02-28T04:21:04.094Z,46.19
2023-02-28T04:23:53.790Z,46.41
2023-02-28T04:26:24.084Z,46.58
2023-02-28T04:31:39.954Z,46.33
2023-02-28T04:34:10.296Z,46.33
2023-02-28T04:37:12.406Z,46.46
2023-02-28T04:39:43.891Z,46.19
2023-02-28T04:42:38.535Z,46.24
2023-02-28T04:45:09.367Z,46.28
2023-02-28T04:47:57.991Z,46.22
2023-02-28T04:50:46.869Z,46.43
2023-02-28T04:53:17.164Z,46.36
2023-02-28T04:55:48.114Z,46.36
2023-02-28T04:58:19.300Z,46.04
2023-02-28T05:00:49.393Z,46.23
2023-02-28T05:03:20.437Z,46.33
2023-02-28T05:08:55.591Z,46.15
2023-02-28T05:11:44.944Z,46.27
2023-02-28T05:14:17.350Z,46.07
2023-02-28T05:16:47.454Z,46.05
2023-02-28T05:19:17.821Z,46.11
2023-02-28T05:24:45.401Z,46.23
2023-02-28T05:27:16.139Z,46.08
2023-02-28T05:29:48.595Z,46.10
2023-02-28T05:32:18.898Z,45.86
2023-02-28T05:34:49.280Z,46.02
2023-02-28T05:37:19.556Z,45.98
2023-02-28T05:39:49.796Z,46.03
2023-02-28T05:42:19.694Z,46.05
2023-02-28T05:44:49.896Z,46.19
2023-02-28T05:47:20.156Z,45.96
2023-02-28T05:49:50.257Z,45.82
2023-02-28T05:52:21.119Z,46.12
2023-02-28T05:54:51.536Z,45.94
2023-02-28T05:57:24.681Z,45.74
2023-02-28T06:02:43.799Z,45.57
2023-02-28T06:05:18.686Z,45.41
2023-02-28T06:07:48.993Z,45.89
2023-02-28T06:10:19.285Z,45.62
2023-02-28T06:12:50.024Z,45.81
2023-02-28T06:15:20.181Z,45.59
2023-02-28T06:17:50.348Z,45.45
2023-02-28T06:20:20.633Z,45.19
2023-02-28T06:22:50.921Z,45.34
2023-02-28T06:25:21.380Z,45.39
2023-02-28T06:28:09.667Z,45.35
2023-02-28T06:30:57.742Z,45.33
2023-02-28T06:33:47.273Z,45.35
2023-02-28T06:36:19.290Z,45.34
2023-02-28T06:41:58.645Z,45.45
2023-02-28T06:44:47.098Z,45.13
2023-02-28T06:47:35.600Z,45.29
2023-02-28T06:52:51.659Z,45.07
2023-02-28T06:55:42.029Z,45.46
2023-02-28T06:58:30.234Z,45.23
2023-02-28T07:01:18.884Z,45.12
2023-02-28T07:06:54.430Z,45.24
2023-02-28T07:09:24.671Z,45.02
2023-02-28T07:11:54.824Z,45.00
2023-02-28T07:14:42.918Z,45.07
2023-02-28T07:17:15.375Z,44.75
2023-02-28T07:19:45.566Z,44.95
2023-02-28T07:22:16.077Z,45.01
2023-02-28T07:24:46.980Z,45.19
2023-02-28T07:27:26.771Z,45.09
2023-02-28T07:30:15.596Z,45.00
2023-02-28T07:32:45.989Z,45.16
2023-02-28T07:35:18.398Z,44.87
2023-02-28T07:37:50.296Z,45.14
2023-02-28T07:40:22.135Z,44.99
2023-02-28T07:42:52.498Z,45.04
2023-02-28T07:45:23.142Z,45.09
2023-02-28T07:47:53.301Z,45.14
2023-02-28T07:50:24.369Z,45.06
2023-02-28T07:52:55.408Z,45.31
2023-02-28T07:55:43.341Z,45.23
2023-02-28T08:03:47.390Z,45.26
2023-02-28T08:06:36.255Z,45.38
2023-02-28T08:09:06.448Z,45.25
2023-02-28T08:11:36.578Z,45.51
2023-02-28T08:14:06.569Z,45.49
2023-02-28T08:16:54.917Z,45.30
2023-02-28T08:19:43.649Z,45.54
2023-02-28T08:22:14.697Z,45.44
2023-02-28T08:24:46.913Z,45.62
2023-02-28T08:27:17.807Z,45.66
2023-02-28T08:29:47.926Z,45.38
2023-02-28T08:32:29.422Z,45.37
2023-02-28T08:35:00.884Z,45.59
2023-02-28T08:37:52.318Z,45.46
2023-02-28T08:40:23.737Z,45.53
2023-02-28T08:42:53.953Z,45.72
2023-02-28T08:45:23.826Z,45.52
2023-02-28T08:47:55.765Z,45.84
2023-02-28T08:50:46.473Z,45.45
2023-02-28T08:53:36.684Z,45.64
2023-02-28T08:56:25.220Z,45.59
2023-02-28T08:59:13.414Z,45.52
2023-02-28T09:01:45.689Z,45.54
2023-02-28T09:04:34.142Z,45.56
2023-02-28T09:07:22.607Z,45.69
2023-02-28T09:09:58.691Z,45.77
2023-02-28T09:12:30.082Z,45.74
2023-02-28T09:14:59.778Z,45.53
2023-02-28T09:17:30.899Z,45.56
2023-02-28T09:20:19.425Z,45.58
2023-02-28T09:22:49.512Z,45.81
2023-02-28T09:25:19.498Z,45.43
2023-02-28T09:27:49.393Z,45.82
2023-02-28T09:30:19.571Z,45.51
2023-02-28T09:32:55.151Z,45.76
2023-02-28T09:35:27.013Z,45.55
2023-02-28T09:37:57.514Z,45.46
2023-02-28T09:40:55.489Z,45.67
2023-02-28T09:43:30.114Z,45.86
2023-02-28T09:46:09.302Z,45.84
2023-02-28T09:48:59.424Z,45.95
2023-02-28T09:51:52.129Z,45.89
2023-02-28T09:54:27.740Z,45.77
2023-02-28T09:57:08.608Z,45.89
2023-02-28T09:59:44.710Z,45.53
2023-02-28T10:02:20.653Z,45.99
2023-02-28T10:04:54.721Z,46.05
2023-02-28T10:07:58.145Z,45.84
2023-02-28T10:10:39.442Z,45.96
2023-02-28T10:14:04.458Z,46.21
2023-02-28T10:17:18.456Z,46.33
2023-02-28T10:19:55.017Z,46.27
2023-02-28T10:22:30.242Z,46.51
2023-02-28T10:25:06.957Z,46.38
2023-02-28T10:27:38.326Z,46.49
2023-02-28T10:30:26.321Z,46.47
2023-02-28T10:32:57.002Z,46.54
2023-02-28T10:35:47.940Z,46.61
2023-02-28T10:38:30.738Z,46.62
2023-02-28T10:41:26.679Z,46.60
2023-02-28T10:44:16.465Z,46.64
2023-02-28T10:46:49.610Z,46.57
2023-02-28T10:49:32.770Z,46.88
2023-02-28T10:52:04.916Z,46.64
2023-02-28T10:54:40.966Z,46.80
2023-02-28T10:57:24.301Z,46.93
2023-02-28T10:59:59.306Z,46.79
2023-02-28T11:02:49.568Z,47.01
2023-02-28T11:05:34.389Z,46.85
2023-02-28T11:08:15.943Z,46.93
2023-02-28T11:10:52.685Z,47.00
2023-02-28T11:13:26.254Z,47.26
2023-02-28T11:16:02.321Z,47.03
2023-02-28T11:18:44.921Z,47.16
2023-02-28T11:21:43.374Z,47.33
2023-02-28T11:24:40.825Z,47.31
2023-02-28T11:27:34.311Z,47.27
2023-02-28T11:30:04.657Z,47.47
2023-02-28T11:32:35.111Z,47.30
2023-02-28T11:35:44.334Z,47.57
2023-02-28T11:38:16.307Z,47.65
2023-02-28T11:40:59.642Z,47.65
2023-02-28T11:44:17.199Z,47.69
2023-02-28T11:47:02.474Z,47.83
2023-02-28T11:50:00.828Z,47.85
2023-02-28T11:52:54.855Z,47.99
2023-02-28T11:55:31.335Z,47.98
2023-02-28T11:58:42.908Z,48.10
2023-02-28T12:01:54.322Z,47.99
2023-02-28T12:04:40.605Z,48.09
2023-02-28T12:07:29.487Z,48.12
2023-02-28T12:10:05.151Z,48.11
2023-02-28T12:12:53.288Z,48.07
2023-02-28T12:15:28.236Z,48.07
2023-02-28T12:18:16.271Z,48.21
2023-02-28T12:20:52.783Z,48.18
2023-02-28T12:23:45.416Z,48.18
2023-02-28T12:26:40.936Z,48.28
2023-02-28T12:29:19.662Z,48.30
2023-02-28T12:32:15.913Z,48.38
2023-02-28T12:34:54.606Z,48.44
2023-02-28T12:37:53.407Z,48.42
2023-02-28T12:40:25.977Z,48.47
2023-02-28T12:43:05.502Z,48.42
2023-02-28T12:45:45.513Z,48.64
2023-02-28T12:48:49.290Z,48.86
2023-02-28T12:51:21.016Z,48.67
2023-02-28T12:53:59.688Z,48.52
2023-02-28T12:56:50.964Z,48.60
2023-02-28T12:59:45.520Z,48.70
2023-02-28T13:02:36.846Z,48.77
2023-02-28T13:37:37.568Z,50.29
2023-02-28T13:40:49.326Z,50.61
2023-02-28T13:43:34.688Z,50.49
2023-02-28T13:46:23.127Z,50.50
2023-02-28T13:48:59.746Z,50.44
2023-02-28T13:51:54.519Z,50.06
2023-02-28T13:54:57.795Z,50.07
2023-02-28T13:57:50.520Z,49.84
2023-02-28T14:00:30.194Z,49.72
2023-02-28T14:03:25.882Z,49.63
2023-02-28T14:06:39.476Z,49.67
2023-02-28T14:09:33.689Z,49.51
2023-02-28T14:12:44.787Z,49.66
2023-02-28T14:15:34.093Z,50.01
2023-02-28T14:18:31.253Z,50.19
2023-02-28T14:21:51.402Z,50.11
2023-02-28T14:25:02.206Z,50.46
2023-02-28T14:27:59.879Z,51.29
2023-02-28T14:31:04.652Z,52.08
2023-02-28T14:34:07.230Z,52.16
2023-02-28T14:36:43.028Z,52.05
2023-02-28T14:39:36.799Z,51.92
2023-02-28T14:42:46.638Z,51.94
2023-02-28T14:45:27.646Z,51.67
2023-02-28T14:48:04.049Z,50.67
2023-02-28T14:50:40.459Z,50.73
2023-02-28T14:53:23.573Z,50.75
2023-02-28T14:55:59.258Z,50.19
2023-02-28T14:58:34.771Z,50.05
2023-02-28T15:01:08.817Z,49.80
2023-02-28T15:03:48.793Z,49.79
2023-02-28T15:09:14.758Z,50.20
2023-02-28T15:11:52.808Z,50.03
2023-02-28T15:14:27.887Z,50.03
2023-02-28T15:17:06.491Z,49.95
2023-02-28T15:19:44.803Z,49.87
2023-02-28T15:22:23.592Z,50.09
2023-02-28T15:24:58.030Z,50.31
2023-02-28T15:27:35.363Z,50.46
2023-02-28T15:30:12.391Z,50.14
2023-02-28T15:32:43.549Z,50.28
2023-02-28T15:35:30.065Z,49.93
2023-02-28T15:38:22.421Z,49.99
2023-02-28T15:41:00.429Z,50.11
2023-02-28T15:43:31.973Z,49.93
2023-02-28T15:46:06.876Z,50.26
2023-02-28T15:48:54.908Z,50.06
2023-02-28T15:51:39.727Z,49.93
2023-02-28T15:54:12.779Z,49.95
2023-02-28T15:56:48.320Z,49.95
2023-02-28T15:59:53.425Z,49.88
2023-02-28T16:02:33.106Z,50.23
2023-02-28T16:05:12.518Z,49.93
2023-02-28T16:07:46.102Z,49.96
2023-02-28T16:10:19.831Z,49.85
2023-02-28T16:12:50.026Z,49.83
2023-02-28T16:15:32.606Z,49.62
2023-02-28T16:18:02.702Z,49.66
2023-02-28T16:20:34.707Z,49.52
2023-02-28T16:23:06.001Z,49.40
2023-02-28T16:25:45.639Z,49.31
2023-02-28T16:28:37.467Z,49.17
2023-02-28T16:31:10.468Z,49.01
2023-02-28T16:33:57.376Z,49.11
2023-02-28T16:36:35.806Z,49.13
2023-02-28T16:39:06.793Z,49.02
2023-02-28T16:41:38.207Z,48.95
2023-02-28T16:44:16.343Z,49.41
2023-02-28T16:46:46.467Z,49.26
2023-02-28T16:49:16.531Z,49.29
2023-02-28T16:51:46.782Z,49.29
2023-02-28T16:54:16.884Z,49.43
2023-02-28T16:56:51.943Z,49.56
2023-02-28T16:59:28.003Z,49.44
2023-02-28T17:02:02.031Z,49.44
2023-02-28T17:04:50.764Z,49.13
2023-02-28T17:07:21.045Z,48.88
2023-02-28T17:09:52.439Z,49.23
2023-02-28T17:12:24.030Z,49.10
2023-02-28T17:14:54.080Z,49.11
2023-02-28T17:17:25.361Z,48.99
2023-02-28T17:19:55.571Z,49.01
2023-02-28T17:22:26.361Z,49.02
2023-02-28T17:24:59.546Z,49.30
2023-02-28T17:27:48.303Z,48.93
2023-02-28T17:30:50.191Z,48.94
2023-02-28T17:33:32.378Z,49.11
2023-02-28T17:36:05.721Z,49.09
2023-02-28T17:38:45.641Z,49.17
2023-02-28T17:41:15.853Z,49.33
2023-02-28T17:43:45.857Z,49.27
2023-02-28T17:46:23.733Z,49.33
2023-02-28T17:48:57.772Z,49.36
2023-02-28T17:51:28.649Z,49.11
2023-02-28T17:53:58.973Z,49.19
2023-02-28T17:56:30.759Z,49.40
2023-02-28T17:59:01.795Z,49.49
2023-02-28T18:01:31.923Z,49.44
2023-02-28T18:04:02.070Z,49.40
2023-02-28T18:06:52.889Z,49.53
2023-02-28T18:09:25.704Z,49.44
2023-02-28T18:11:57.715Z,49.96
2023-02-28T18:14:33.188Z,49.77
2023-02-28T18:17:08.232Z,49.71
2023-02-28T18:19:38.722Z,49.69
2023-02-28T18:22:11.941Z,49.93
2023-02-28T18:24:43.579Z,49.87
2023-02-28T18:27:25.659Z,49.85
2023-02-28T18:29:55.842Z,49.92
2023-02-28T18:32:25.811Z,50.16
2023-02-28T18:34:55.880Z,50.04
2023-02-28T18:37:25.940Z,50.42
2023-02-28T18:39:56.345Z,50.14
2023-02-28T18:42:26.375Z,50.37
2023-02-28T18:44:56.256Z,50.43
2023-02-28T18:47:49.002Z,50.58
2023-02-28T18:50:19.487Z,50.49
2023-02-28T18:52:49.533Z,50.63
2023-02-28T18:55:21.127Z,50.42
2023-02-28T18:57:51.258Z,50.37
2023-02-28T19:03:06.877Z,50.34
2023-02-28T19:05:37.183Z,50.26
2023-02-28T19:08:26.411Z,50.37
2023-02-28T19:10:56.439Z,50.33
2023-02-28T19:13:26.695Z,50.31
2023-02-28T19:16:04.931Z,50.58
2023-02-28T19:18:41.767Z,50.33
2023-02-28T19:21:13.727Z,50.29
2023-02-28T19:23:58.152Z,50.40
2023-02-28T19:26:32.020Z,50.43
2023-02-28T19:29:10.911Z,50.20
2023-02-28T19:31:49.845Z,50.42
2023-02-28T19:34:20.008Z,50.28
2023-02-28T19:36:49.982Z,50.13
2023-02-28T19:39:21.056Z,50.21
2023-02-28T19:41:51.979Z,50.16
2023-02-28T19:44:22.548Z,50.11
2023-02-28T19:46:52.780Z,50.34
2023-02-28T19:49:22.694Z,50.43
2023-02-28T19:51:52.701Z,50.36
2023-02-28T19:54:22.756Z,50.38
2023-02-28T19:56:52.625Z,50.63
2023-02-28T19:59:38.276Z,50.47
2023-02-28T20:02:15.915Z,50.44
2023-02-28T20:04:48.995Z,50.59
2023-02-28T20:07:22.762Z,50.67
2023-02-28T20:09:52.813Z,50.55
2023-02-28T20:12:25.287Z,50.79
2023-02-28T20:14:58.836Z,50.82
2023-02-28T20:17:30.714Z,50.54
2023-02-28T20:20:01.921Z,50.83
2023-02-28T20:22:31.995Z,50.69
2023-02-28T20:25:01.832Z,50.81
2023-02-28T20:27:31.747Z,51.01
2023-02-28T20:30:01.997Z,50.79
2023-02-28T20:32:32.872Z,50.96
2023-02-28T20:35:02.930Z,50.88
2023-02-28T20:37:32.818Z,50.85
2023-02-28T20:40:02.950Z,51.03
2023-02-28T20:42:34.648Z,50.95
2023-02-28T20:45:07.160Z,51.07
2023-02-28T20:47:37.571Z,51.12
2023-02-28T20:50:08.202Z,51.17
2023-02-28T20:52:38.375Z,51.17
2023-02-28T20:55:09.241Z,51.01
2023-02-28T20:57:39.560Z,51.12
2023-02-28T21:00:17.775Z,51.10
2023-02-28T21:02:48.043Z,51.25
2023-02-28T21:05:18.611Z,51.22
2023-02-28T21:07:49.754Z,51.28
2023-02-28T21:10:19.972Z,51.10
2023-02-28T21:12:52.835Z,50.96
2023-02-28T21:15:23.650Z,51.11
2023-02-28T21:17:53.725Z,51.02
2023-02-28T21:20:26.571Z,51.20
2023-02-28T21:22:56.880Z,51.23
2023-02-28T21:25:27.317Z,51.21
2023-02-28T21:27:57.975Z,51.06
2023-02-28T21:30:28.128Z,50.77
2023-02-28T21:32:59.842Z,51.19
2023-02-28T21:35:31.681Z,51.05
2023-02-28T21:38:01.982Z,51.12
2023-02-28T21:40:32.139Z,50.86
2023-02-28T21:43:02.741Z,51.01
2023-02-28T21:45:33.403Z,50.99
2023-02-28T21:48:03.432Z,51.15
2023-02-28T21:50:33.464Z,51.05
2023-02-28T21:53:05.818Z,50.98
2023-02-28T21:55:37.531Z,51.19
2023-02-28T21:58:09.985Z,51.03
2023-02-28T22:00:40.620Z,50.81
2023-02-28T22:03:11.670Z,51.05
2023-02-28T22:05:41.903Z,51.29
2023-02-28T22:08:13.395Z,50.80
2023-02-28T22:10:43.504Z,50.99
2023-02-28T22:13:14.753Z,51.07
2023-02-28T22:15:44.839Z,51.05
2023-02-28T22:18:14.683Z,51.01
2023-02-28T22:20:45.035Z,51.07
2023-02-28T22:23:15.065Z,51.21
2023-02-28T22:25:44.944Z,51.35
2023-02-28T22:28:15.579Z,51.99
2023-02-28T22:30:46.115Z,52.02
2023-02-28T22:33:19.731Z,51.96
2023-02-28T22:35:49.756Z,52.13
2023-02-28T22:38:20.327Z,52.14
2023-02-28T22:40:50.403Z,52.17
2023-02-28T22:43:20.241Z,52.08
2023-02-28T22:45:50.824Z,52.29
2023-02-28T22:48:20.857Z,52.02
2023-02-28T22:50:50.874Z,52.22
2023-02-28T22:53:21.015Z,51.68
2023-02-28T22:55:59.312Z,52.04
2023-02-28T23:01:11.311Z,51.46
2023-02-28T23:03:43.123Z,51.91
2023-02-28T23:06:26.056Z,52.43
2023-02-28T23:08:59.912Z,52.52
2023-02-28T23:11:39.494Z,52.77
2023-02-28T23:14:10.454Z,52.69
2023-02-28T23:16:44.441Z,52.85
2023-02-28T23:19:34.700Z,52.81
2023-02-28T23:22:06.125Z,52.68
2023-02-28T23:24:37.390Z,52.77
2023-02-28T23:27:09.301Z,52.64
2023-02-28T23:29:39.493Z,52.68
2023-02-28T23:32:09.467Z,52.81
2023-02-28T23:34:39.851Z,53.02
2023-02-28T23:37:09.847Z,52.53
2023-02-28T23:39:40.697Z,52.61
2023-02-28T23:42:10.690Z,52.84
2023-02-28T23:44:41.251Z,52.72
2023-02-28T23:47:16.632Z,52.69
2023-02-28T23:49:47.227Z,52.62
2023-02-28T23:52:17.826Z,52.55
2023-02-28T23:54:48.918Z,52.52
2023-02-28T23:57:19.117Z,52.57
